Time;durP1;ratioP1;P1;durP2;ratioP2;P2;SDS_P1;SDS_P2;PMS_P1;PMS_P2;Temp;Humidity;BMP_temperature;BMP_pressure;BME280_temperature;BME280_humidity;BME280_pressure;Samples;Min_cycle;Max_cycle;Signal;HPM_P1;HPM_P2
2022/06/02 00:01:15;;;;;;;4.30;3.17;;;;;;;24.20;58.00;99830.48;1785174;80;21076;-67
2022/06/02 00:04:08;;;;;;;3.87;3.52;;;;;;;24.19;58.05;99830.77;1783073;80;20994;-67
2022/06/02 00:07:07;;;;;;;4.20;3.80;;;;;;;24.19;58.16;99833.48;1755874;80;21029;-67
2022/06/02 00:10:16;;;;;;;3.75;3.45;;;;;;;24.17;58.32;99831.56;1748759;82;21111;-67
2022/06/02 00:13:08;;;;;;;4.35;3.95;;;;;;;24.16;58.64;99833.98;1756352;80;21242;-66
2022/06/02 00:15:42;;;;;;;4.85;3.40;;;;;;;24.14;58.95;99835.59;1745272;80;21022;-66
2022/06/02 00:18:31;;;;;;;6.80;3.37;;;;;;;24.12;59.04;99840.45;1772820;80;21041;-66
2022/06/02 00:21:46;;;;;;;3.72;3.42;;;;;;;24.12;59.15;99855.38;1760997;79;21073;-66
2022/06/02 00:24:34;;;;;;;5.58;3.40;;;;;;;24.10;59.17;99861.59;1780213;80;21066;-66
2022/06/02 00:27:06;;;;;;;4.03;3.62;;;;;;;24.09;59.18;99856.72;1783862;80;21129;-67
2022/06/02 00:30:05;;;;;;;5.10;3.27;;;;;;;24.08;59.25;99858.31;1783998;80;20999;-67
2022/06/02 00:32:50;;;;;;;4.00;3.58;;;;;;;24.08;59.34;99867.81;1770824;80;21049;-68
2022/06/02 00:35:54;;;;;;;3.92;3.45;;;;;;;24.06;59.55;99868.61;1709647;79;21002;-67
2022/06/02 00:38:25;;;;;;;4.92;3.80;;;;;;;24.05;59.56;99866.44;1740760;80;21033;-67
2022/06/02 00:40:53;;;;;;;5.83;3.20;;;;;;;24.03;59.64;99867.75;1775591;79;21184;-66
2022/06/02 00:43:38;;;;;;;3.80;3.45;;;;;;;24.03;59.61;99874.02;1781658;79;21025;-66
2022/06/02 00:46:34;;;;;;;4.20;3.80;;;;;;;23.99;59.71;99870.17;1752303;81;21061;-66
2022/06/02 00:49:43;;;;;;;3.98;3.67;;;;;;;24.03;59.76;99875.89;1778215;79;21018;-66
2022/06/02 00:52:21;;;;;;;5.78;3.62;;;;;;;24.02;59.83;99878.34;1781941;79;21084;-65
2022/06/02 00:58:20;;;;;;;4.25;3.85;;;;;;;23.98;60.03;99878.02;1773725;80;21017;-65
2022/06/02 01:00:53;;;;;;;4.15;3.75;;;;;;;23.97;60.00;99876.91;1775418;80;21202;-65
2022/06/02 01:03:23;;;;;;;4.83;4.33;;;;;;;23.95;60.08;99873.09;1783341;80;21069;-66
2022/06/02 01:06:23;;;;;;;4.30;3.90;;;;;;;23.94;60.20;99872.82;1768806;79;21112;-66
2022/06/02 01:09:11;;;;;;;5.30;4.30;;;;;;;23.93;60.27;99880.14;1766875;79;21205;-66
2022/06/02 01:12:18;;;;;;;4.92;4.30;;;;;;;23.92;60.48;99888.53;1761055;80;21570;-66
2022/06/02 01:15:16;;;;;;;5.35;4.42;;;;;;;23.91;60.46;99916.72;1781458;80;21013;-65
2022/06/02 01:18:06;;;;;;;4.30;3.90;;;;;;;23.89;60.36;99895.80;1778566;79;21482;-66
2022/06/02 01:20:51;;;;;;;4.20;3.80;;;;;;;23.87;60.39;99891.98;1769835;79;21003;-67
2022/06/02 01:24:09;;;;;;;4.50;4.10;;;;;;;23.85;60.50;99899.55;1770076;79;21199;-65
2022/06/02 01:26:58;;;;;;;4.72;4.05;;;;;;;23.85;60.53;99903.63;1752562;80;20991;-69
2022/06/02 01:29:53;;;;;;;4.72;4.28;;;;;;;23.83;60.67;99894.11;1762526;80;21026;-66
2022/06/02 01:32:28;;;;;;;4.35;3.95;;;;;;;23.82;60.59;99891.12;1769025;80;21050;-67
2022/06/02 01:35:09;;;;;;;4.00;3.65;;;;;;;23.80;60.61;99888.66;1753667;80;21053;-65
2022/06/02 01:37:50;;;;;;;4.78;4.15;;;;;;;23.80;60.61;99881.03;1773563;80;21958;-66
2022/06/02 01:40:34;;;;;;;5.15;4.25;;;;;;;23.78;60.62;99882.67;1767888;80;21022;-66
2022/06/02 01:43:15;;;;;;;4.40;3.80;;;;;;;23.78;60.68;99882.67;1776409;80;21002;-66
2022/06/02 01:45:50;;;;;;;5.08;3.77;;;;;;;23.78;60.76;99876.37;1765230;80;21077;-66
2022/06/02 01:48:40;;;;;;;4.55;4.05;;;;;;;23.77;60.84;99867.42;1695450;83;21109;-65
2022/06/02 01:51:18;;;;;;;4.28;3.90;;;;;;;23.77;60.93;99873.39;1706530;83;22009;-67
2022/06/02 01:54:15;;;;;;;4.45;4.05;;;;;;;23.75;60.96;99870.38;1707014;83;21058;-65
2022/06/02 01:57:07;;;;;;;5.05;4.45;;;;;;;23.74;61.03;99870.11;1654909;85;21081;-66
2022/06/02 01:59:51;;;;;;;4.15;3.85;;;;;;;23.72;61.05;99878.20;1642593;86;21578;-65
2022/06/02 02:02:58;;;;;;;4.58;4.10;;;;;;;23.70;61.11;99882.54;1703257;82;21006;-65
2022/06/02 02:05:52;;;;;;;4.42;4.03;;;;;;;23.69;61.19;99886.84;1716448;82;22078;-66
2022/06/02 02:08:31;;;;;;;4.15;3.85;;;;;;;23.68;61.16;99891.98;1708374;83;21071;-67
2022/06/02 02:11:18;;;;;;;5.25;4.20;;;;;;;23.66;61.27;99881.41;1728135;82;21067;-66
2022/06/02 02:13:54;;;;;;;5.72;3.72;;;;;;;23.65;61.25;99878.94;1715653;82;21079;-66
2022/06/02 02:16:54;;;;;;;4.20;3.90;;;;;;;23.63;61.26;99869.69;1708698;82;21030;-67
2022/06/02 02:19:34;;;;;;;4.20;3.90;;;;;;;23.62;61.37;99869.39;1709738;81;21002;-66
2022/06/02 02:22:36;;;;;;;4.60;4.03;;;;;;;23.61;61.41;99862.34;1738737;81;21008;-66
2022/06/02 02:25:14;;;;;;;5.12;3.92;;;;;;;23.60;61.46;99861.23;1689880;84;21094;-67
2022/06/02 02:28:05;;;;;;;5.50;4.15;;;;;;;23.59;61.47;99862.32;1710231;82;21505;-66
2022/06/02 02:30:48;;;;;;;4.87;4.37;;;;;;;23.58;61.63;99865.55;1736771;81;21558;-65
2022/06/02 02:33:23;;;;;;;4.17;3.80;;;;;;;23.57;61.70;99867.98;1744612;81;22069;-65
2022/06/02 02:36:00;;;;;;;4.20;3.80;;;;;;;23.56;61.75;99871.75;1700902;82;21090;-66
2022/06/02 02:38:44;;;;;;;5.90;4.42;;;;;;;23.56;61.81;99874.47;1718576;82;21049;-66
2022/06/02 02:41:16;;;;;;;4.62;4.20;;;;;;;23.56;61.81;99879.89;1719470;83;21073;-66
2022/06/02 02:44:13;;;;;;;5.50;5.00;;;;;;;23.55;61.85;99880.98;1720426;82;21069;-66
2022/06/02 02:47:01;;;;;;;4.05;3.75;;;;;;;23.55;61.84;99889.92;1714394;82;21142;-67
2022/06/02 02:49:51;;;;;;;4.87;4.47;;;;;;;23.55;61.88;99886.41;1713628;83;21538;-66
2022/06/02 02:53:01;;;;;;;4.75;4.10;;;;;;;23.55;61.90;99891.83;1710202;82;21118;-66
2022/06/02 02:55:58;;;;;;;4.78;4.37;;;;;;;23.55;61.93;99893.18;1703464;83;21053;-66
2022/06/02 02:58:36;;;;;;;4.60;4.20;;;;;;;23.54;61.88;99884.75;1688336;83;21003;-67
2022/06/02 03:01:07;;;;;;;4.53;4.12;;;;;;;23.52;61.93;99884.98;1717397;83;21159;-66
2022/06/02 03:03:50;;;;;;;4.40;4.00;;;;;;;23.53;61.93;99893.97;1710181;83;21034;-66
2022/06/02 03:06:24;;;;;;;4.85;4.10;;;;;;;23.53;61.95;99896.13;1712725;83;24851;-67
2022/06/02 03:09:11;;;;;;;5.78;4.30;;;;;;;23.53;61.98;99899.39;1706779;83;21066;-67
2022/06/02 03:11:58;;;;;;;4.65;4.25;;;;;;;23.53;61.98;99895.32;1716576;82;21557;-67
2022/06/02 03:15:03;;;;;;;4.80;4.40;;;;;;;23.54;61.95;99902.37;1715908;82;21153;-66
2022/06/02 03:18:08;;;;;;;4.50;4.10;;;;;;;23.54;62.04;99903.73;1702685;82;21038;-67
2022/06/02 03:20:59;;;;;;;4.75;4.35;;;;;;;23.53;62.07;99908.33;1716461;83;21029;-67
2022/06/02 03:23:58;;;;;;;4.67;4.15;;;;;;;23.53;62.13;99904.81;1715230;82;21113;-66
2022/06/02 03:26:45;;;;;;;4.42;4.03;;;;;;;23.52;62.24;99901.26;1719591;83;21026;-67
2022/06/02 03:29:35;;;;;;;4.45;4.05;;;;;;;23.52;62.17;99902.61;1706626;83;21836;-67
2022/06/02 03:32:26;;;;;;;4.85;4.40;;;;;;;23.54;62.26;99907.80;1718623;83;21027;-67
2022/06/02 03:35:10;;;;;;;4.10;3.70;;;;;;;23.54;62.17;99904.53;1718836;83;21006;-66
2022/06/02 03:38:01;;;;;;;4.45;4.15;;;;;;;23.54;62.16;99906.44;1634908;83;21149;-65
2022/06/02 03:40:50;;;;;;;4.30;3.90;;;;;;;23.54;62.12;99911.31;1718455;82;21553;-66
2022/06/02 03:43:26;;;;;;;4.35;3.95;;;;;;;23.55;61.93;99914.88;1718797;83;21135;-67
2022/06/02 03:46:07;;;;;;;5.78;4.45;;;;;;;23.56;61.85;99907.00;1717311;82;21096;-66
2022/06/02 03:49:00;;;;;;;5.12;4.37;;;;;;;23.57;61.76;99901.07;1718329;82;21096;-66
2022/06/02 03:51:34;;;;;;;4.85;4.37;;;;;;;23.60;61.62;99908.69;1712523;82;21158;-67
2022/06/02 03:54:30;;;;;;;4.70;4.22;;;;;;;23.59;61.53;99907.06;1718617;82;21074;-67
2022/06/02 03:57:17;;;;;;;5.87;4.15;;;;;;;23.60;61.52;99908.14;1715723;83;21168;-67
2022/06/02 04:00:22;;;;;;;5.85;4.42;;;;;;;23.62;61.68;99916.03;1719523;82;21045;-66
2022/06/02 04:03:03;;;;;;;4.15;3.75;;;;;;;23.62;61.75;99920.10;1718411;83;21067;-66
2022/06/02 04:05:59;;;;;;;4.80;4.40;;;;;;;23.63;61.81;99933.42;1718849;83;21546;-68
2022/06/02 04:09:05;;;;;;;4.70;4.20;;;;;;;23.64;61.87;99931.01;1716406;82;21141;-66
2022/06/02 04:14:43;;;;;;;4.35;3.92;;;;;;;23.65;61.95;99929.92;1699126;83;21085;-67
2022/06/02 04:17:29;;;;;;;5.15;4.65;;;;;;;23.67;61.91;99931.84;1703149;83;22115;-67
2022/06/02 04:20:34;;;;;;;5.35;4.42;;;;;;;23.66;61.91;99931.58;1717410;82;21578;-67
2022/06/02 04:23:27;;;;;;;5.37;4.28;;;;;;;23.68;61.92;99927.23;1717978;82;21069;-67
2022/06/02 04:26:36;;;;;;;5.08;4.58;;;;;;;23.68;62.01;99930.78;1718475;81;21140;-66
2022/06/02 04:29:30;;;;;;;5.30;4.67;;;;;;;23.68;62.09;99925.36;1729775;83;21027;-67
2022/06/02 04:32:04;;;;;;;;;;;;;;;23.70;62.15;99931.87;1720374;83;21062;-66
2022/06/02 04:34:37;;;;;;;;;;;;;;;23.70;62.17;99939.49;1726536;81;20153;-67
2022/06/02 04:37:18;;;;;;;7.33;4.62;;;;;;;23.70;62.18;99938.14;1723179;81;20180;-66
2022/06/02 04:39:55;;;;;;;5.35;4.80;;;;;;;23.70;62.08;99943.56;1709501;81;21209;-66
2022/06/02 04:42:53;;;;;;;5.30;4.80;;;;;;;23.72;61.99;99939.22;1708111;83;21069;-67
2022/06/02 04:45:46;;;;;;;5.50;4.78;;;;;;;23.73;61.99;99932.19;1702635;82;21113;-66
2022/06/02 04:48:33;;;;;;;6.30;5.08;;;;;;;23.75;61.97;99938.19;1727158;81;21074;-67
2022/06/02 04:51:45;;;;;;;6.72;4.80;;;;;;;23.76;61.92;99930.89;1720828;83;21017;-66
2022/06/02 04:54:38;;;;;;;8.28;4.95;;;;;;;23.78;62.08;99931.49;1718831;81;21160;-66
2022/06/02 04:57:41;;;;;;;6.72;4.80;;;;;;;23.81;62.42;99921.48;1721726;81;21494;-67
2022/06/02 05:00:14;;;;;;;6.10;4.65;;;;;;;23.81;62.44;99918.77;1702789;83;21051;-67
2022/06/02 05:02:49;;;;;;;6.65;4.92;;;;;;;23.83;62.62;99919.88;1700613;84;21016;-67
2022/06/02 05:05:38;;;;;;;7.78;5.33;;;;;;;23.85;62.85;99916.38;1719632;83;21046;-67
2022/06/02 05:08:36;;;;;;;8.60;5.50;;;;;;;23.88;62.81;99915.88;1663813;86;21098;-66
2022/06/02 05:11:22;;;;;;;5.67;4.75;;;;;;;23.91;62.73;99916.72;1663821;86;21553;-66
2022/06/02 05:14:00;;;;;;;7.97;5.00;;;;;;;23.94;62.63;99914.33;1663893;86;21030;-66
2022/06/02 05:16:42;;;;;;;6.58;4.75;;;;;;;23.96;62.51;99912.72;1727590;82;21049;-68
2022/06/02 05:19:34;;;;;;;5.35;4.70;;;;;;;24.00;62.37;99913.05;1716426;82;21018;-67
2022/06/02 05:22:15;;;;;;;5.83;5.20;;;;;;;24.02;62.27;99917.68;1710033;82;21196;-66
2022/06/02 05:25:25;;;;;;;6.92;4.95;;;;;;;24.05;62.17;99914.44;1681202;82;21020;-66
2022/06/02 05:28:27;;;;;;;5.80;4.75;;;;;;;24.08;62.14;99912.05;1722954;82;21074;-67
2022/06/02 05:31:19;;;;;;;5.53;4.92;;;;;;;24.11;62.12;99903.41;1706934;84;21123;-66
2022/06/02 05:34:15;;;;;;;5.97;4.67;;;;;;;24.13;61.96;99897.19;1702325;84;21086;-66
2022/06/02 05:36:50;;;;;;;8.23;4.70;;;;;;;24.17;61.78;99905.65;1695951;83;22010;-67
2022/06/02 05:39:47;;;;;;;5.75;4.28;;;;;;;24.20;61.70;99902.95;1713395;83;21059;-68
2022/06/02 05:42:43;;;;;;;5.87;5.15;;;;;;;24.22;61.62;99903.00;1743584;82;21045;-67
2022/06/02 05:45:29;;;;;;;7.85;4.60;;;;;;;24.25;61.54;99904.38;1763574;79;21073;-68
2022/06/02 05:48:21;;;;;;;5.87;4.50;;;;;;;24.27;61.42;99905.75;1747210;80;21550;-67
2022/06/02 05:51:07;;;;;;;6.60;4.78;;;;;;;24.29;61.37;99913.11;1746165;80;21495;-67
2022/06/02 05:53:56;;;;;;;5.12;4.30;;;;;;;24.31;61.25;99915.03;1755684;80;21121;-67
2022/06/02 05:56:40;;;;;;;7.25;4.53;;;;;;;24.35;61.15;99919.41;1759492;80;21066;-66
2022/06/02 05:59:37;;;;;;;5.67;4.87;;;;;;;24.38;61.07;99926.22;1762892;80;20978;-68
2022/06/02 06:02:47;;;;;;;6.95;4.58;;;;;;;24.38;61.02;99916.20;1771802;80;21073;-68
2022/06/02 06:05:35;;;;;;;4.47;3.92;;;;;;;24.41;60.92;99917.58;1751249;80;21283;-67
2022/06/02 06:08:17;;;;;;;5.37;4.62;;;;;;;24.41;60.76;99922.46;1744323;80;21049;-67
2022/06/02 06:11:22;;;;;;;8.78;4.85;;;;;;;24.43;60.69;99929.81;1759887;80;21475;-68
2022/06/02 06:14:18;;;;;;;6.05;4.65;;;;;;;24.45;60.57;99929.02;1766765;80;21073;-67
2022/06/02 06:17:36;;;;;;;6.58;4.60;;;;;;;24.47;60.49;99933.69;1763052;80;20986;-67
2022/06/02 06:20:17;;;;;;;4.83;3.92;;;;;;;24.48;60.51;99938.56;1767549;80;21126;-68
2022/06/02 06:23:03;;;;;;;5.35;4.50;;;;;;;24.49;60.43;99941.55;1768095;80;21014;-67
2022/06/02 06:26:20;;;;;;;5.05;4.55;;;;;;;24.51;60.36;99945.70;1774519;80;21553;-67
2022/06/02 06:28:58;;;;;;;4.05;3.67;;;;;;;24.51;60.22;99937.55;1772809;80;21530;-67
2022/06/02 06:31:50;;;;;;;4.62;4.05;;;;;;;24.53;60.36;99936.77;1781767;80;21022;-67
2022/06/02 06:34:50;;;;;;;5.72;3.98;;;;;;;24.56;60.19;99937.32;1787067;80;21040;-68
2022/06/02 06:37:39;;;;;;;4.35;4.03;;;;;;;24.56;59.95;99939.49;1731553;81;21006;-67
2022/06/02 06:40:30;;;;;;;5.12;4.67;;;;;;;24.57;59.94;99935.72;1764243;80;20981;-67
2022/06/02 06:43:36;;;;;;;4.75;4.25;;;;;;;24.59;59.83;99940.86;1776597;80;21085;-65
2022/06/02 06:46:25;;;;;;;5.95;4.37;;;;;;;24.60;59.62;99937.91;1777859;79;21034;-62
2022/06/02 06:49:01;;;;;;;4.55;4.15;;;;;;;24.62;59.84;99939.01;1767976;80;21846;-63
2022/06/02 06:51:58;;;;;;;4.95;4.20;;;;;;;24.65;59.75;99933.08;1780198;79;20994;-62
2022/06/02 06:54:57;;;;;;;8.45;4.17;;;;;;;24.69;59.61;99930.13;1782225;79;21033;-63
2022/06/02 06:58:05;;;;;;;6.15;4.30;;;;;;;24.72;59.49;99932.31;1772730;80;21029;-63
2022/06/02 07:00:42;;;;;;;7.70;4.58;;;;;;;24.75;59.31;99942.67;1775780;79;21048;-65
2022/06/02 07:03:35;;;;;;;6.17;4.67;;;;;;;24.78;59.24;99946.77;1778036;79;21122;-64
2022/06/02 07:06:23;;;;;;;6.67;4.72;;;;;;;24.81;59.23;99948.98;1779912;79;21033;-66
2022/06/02 07:09:18;;;;;;;7.03;4.70;;;;;;;24.83;59.26;99953.06;1760475;80;21036;-65
2022/06/02 07:14:57;;;;;;;10.23;5.40;;;;;;;24.87;59.11;99952.83;1784177;79;21052;-64
2022/06/02 07:17:57;;;;;;;9.93;6.53;;;;;;;24.91;59.13;99958.57;1775091;80;21130;-65
2022/06/02 07:21:09;;;;;;;11.48;6.47;;;;;;;24.92;58.98;99961.59;1783536;79;21080;-65
2022/06/02 07:24:18;;;;;;;11.80;7.37;;;;;;;24.95;59.00;99962.41;1775425;80;21025;-65
2022/06/02 07:26:58;;;;;;;8.85;6.37;;;;;;;24.96;59.05;99959.98;1768298;79;21661;-65
2022/06/02 07:29:43;;;;;;;8.68;5.87;;;;;;;24.98;59.04;99964.63;1773281;80;21021;-64
2022/06/02 07:32:55;;;;;;;7.15;5.55;;;;;;;25.00;58.96;99973.34;1767541;80;21103;-65
2022/06/02 07:36:10;;;;;;;10.60;6.00;;;;;;;25.02;58.70;99971.73;1761353;79;21050;-66
2022/06/02 07:39:08;;;;;;;10.03;6.47;;;;;;;25.03;58.82;99980.95;1768459;80;20999;-66
2022/06/02 07:42:16;;;;;;;8.03;5.62;;;;;;;25.06;58.85;99985.08;1751677;79;20982;-65
2022/06/02 07:45:31;;;;;;;7.72;5.45;;;;;;;25.07;58.78;99985.34;1768878;79;21049;-62
2022/06/02 07:48:15;;;;;;;5.40;4.72;;;;;;;25.08;58.79;99983.73;1764914;80;21132;-63
2022/06/02 07:50:55;;;;;;;11.30;4.40;;;;;;;25.11;57.90;99982.39;1665604;83;21055;-62
2022/06/02 07:55:49;;;;;;;8.48;4.92;;;;;;;25.17;57.83;99982.73;1873917;75;22747;-64
2022/06/02 08:16:59;;;;;;;6.97;5.05;;;;;;;25.31;59.85;99981.23;1782905;79;22753;-71
2022/06/02 08:19:50;;;;;;;9.35;4.90;;;;;;;25.26;58.63;99985.27;1695080;82;21056;-71
2022/06/02 08:22:25;;;;;;;4.87;4.47;;;;;;;25.25;58.32;99989.08;1731686;81;21781;-70
2022/06/02 08:25:01;;;;;;;8.65;5.08;;;;;;;25.26;58.28;99991.25;1732592;81;21014;-72
2022/06/02 08:28:01;;;;;;;7.87;5.10;;;;;;;25.26;58.13;99993.97;1750101;81;20995;-74
2022/06/02 08:30:46;;;;;;;7.80;4.50;;;;;;;25.26;57.98;99992.06;1716660;83;21090;-67
2022/06/02 08:33:42;;;;;;;5.47;4.47;;;;;;;25.27;57.91;99989.64;1715871;83;21048;-65
2022/06/02 08:36:14;;;;;;;6.40;4.72;;;;;;;25.27;57.41;99993.72;1733348;81;21294;-70
2022/06/02 08:39:21;;;;;;;7.10;4.58;;;;;;;25.29;57.40;99991.55;1721368;78;21186;-70
2022/06/02 08:42:24;;;;;;;5.60;4.47;;;;;;;25.30;57.55;99993.21;1638407;86;21085;-67
2022/06/02 08:45:20;;;;;;;7.20;4.20;;;;;;;25.32;56.91;99995.64;1680985;83;21124;-66
2022/06/02 08:48:13;;;;;;;6.95;5.10;;;;;;;25.35;57.21;99998.41;1679812;84;21090;-66
2022/06/02 08:51:09;;;;;;;5.92;5.20;;;;;;;25.37;57.29;100003.05;1669993;83;21119;-69
2022/06/02 08:54:17;;;;;;;7.60;5.03;;;;;;;25.38;56.96;99995.15;1685119;83;21026;-72
2022/06/02 08:57:16;;;;;;;6.85;4.87;;;;;;;25.40;56.43;99994.34;1679974;84;21057;-68
2022/06/02 09:00:06;;;;;;;5.97;5.37;;;;;;;25.42;55.61;99990.31;1655061;85;21536;-71
2022/06/02 09:03:03;;;;;;;7.42;5.37;;;;;;;25.45;56.60;99995.20;1661976;84;21082;-70
2022/06/02 09:06:29;;;;;;;10.00;5.35;;;;;;;25.48;56.91;99991.98;1694425;83;22642;-70
2022/06/02 09:09:55;;;;;;;7.28;5.08;;;;;;;25.51;57.02;99983.28;1684816;83;21100;-70
2022/06/02 09:12:43;;;;;;;6.50;5.20;;;;;;;25.53;57.15;99978.13;1681598;83;21035;-75
2022/06/02 09:15:32;;;;;;;8.55;5.22;;;;;;;25.54;57.17;99979.78;1685565;83;21610;-70
2022/06/02 09:18:17;;;;;;;8.40;5.33;;;;;;;25.55;57.22;99975.97;1662388;84;21089;-68
2022/06/02 09:20:58;;;;;;;8.33;5.60;;;;;;;25.56;57.14;99978.44;1676774;85;21107;-69
2022/06/02 09:24:00;;;;;;;8.90;5.35;;;;;;;25.58;57.04;99984.98;1682890;83;21090;-66
2022/06/02 09:26:49;;;;;;;8.28;4.97;;;;;;;25.60;56.72;99984.17;1658939;85;21062;-68
2022/06/02 09:29:44;;;;;;;8.08;5.25;;;;;;;25.62;56.16;99984.19;1680085;85;21042;-66
2022/06/02 09:32:36;;;;;;;6.25;5.47;;;;;;;25.64;56.45;99982.56;1657833;85;21063;-67
2022/06/02 09:35:22;;;;;;;7.60;5.17;;;;;;;25.66;56.45;99977.68;1678876;85;21356;-68
2022/06/02 09:38:20;;;;;;;11.75;5.08;;;;;;;25.67;56.49;99978.78;1670989;85;21554;-62
2022/06/02 09:41:10;;;;;;;7.87;5.17;;;;;;;25.68;56.55;99970.89;1672780;85;21034;-67
2022/06/02 09:44:00;;;;;;;9.18;5.30;;;;;;;25.71;56.66;99970.92;1676025;85;21045;-68
2022/06/02 09:46:58;;;;;;;11.93;5.47;;;;;;;25.73;56.53;99967.91;1693618;84;21056;-68
2022/06/02 09:49:52;;;;;;;5.65;5.08;;;;;;;25.76;56.40;99970.93;1691183;83;22142;-68
2022/06/02 09:52:45;;;;;;;7.83;4.62;;;;;;;25.77;56.33;99962.22;1700032;83;21029;-68
2022/06/02 09:55:34;;;;;;;8.60;5.05;;;;;;;25.79;56.26;99956.00;1664454;85;21089;-68
2022/06/02 09:58:09;;;;;;;7.92;4.97;;;;;;;25.81;56.38;99956.01;1660147;84;21137;-62
2022/06/02 10:00:57;;;;;;;8.28;5.58;;;;;;;25.84;56.48;99952.73;1665640;85;21066;-63
2022/06/02 10:03:57;;;;;;;10.60;5.85;;;;;;;25.87;56.65;99947.33;1685590;83;21903;-63
2022/06/02 10:07:13;;;;;;;10.90;5.95;;;;;;;25.91;56.71;99945.75;1619857;86;21801;-63
2022/06/02 10:10:19;;;;;;;8.20;5.97;;;;;;;25.93;56.81;99940.85;1623797;87;21086;-63
2022/06/02 10:13:35;;;;;;;8.45;5.87;;;;;;;25.97;56.93;99935.70;1728780;81;21066;-62
2022/06/02 10:16:36;;;;;;;8.68;6.33;;;;;;;25.99;57.03;99937.61;1704673;81;21064;-63
2022/06/02 10:19:50;;;;;;;6.40;5.50;;;;;;;26.00;56.95;99935.16;1724646;81;21156;-63
2022/06/02 10:22:25;;;;;;;7.55;5.95;;;;;;;26.03;56.92;99931.91;1717905;81;22279;-63
2022/06/02 10:25:21;;;;;;;7.03;5.37;;;;;;;26.04;56.89;99919.41;1720599;81;21138;-63
2022/06/02 10:28:05;;;;;;;7.08;5.30;;;;;;;26.07;56.84;99909.33;1714336;81;21041;-62
2022/06/02 10:31:11;;;;;;;8.50;5.72;;;;;;;26.11;56.85;99910.17;1724488;81;21088;-62
2022/06/02 10:34:15;;;;;;;6.22;5.62;;;;;;;26.14;56.86;99903.65;1722725;81;21153;-62
2022/06/02 10:37:00;;;;;;;6.53;5.75;;;;;;;26.17;56.79;99895.48;1724809;83;21529;-62
2022/06/02 10:39:53;;;;;;;6.50;5.90;;;;;;;26.19;56.83;99896.87;1719807;83;21540;-62
2022/06/02 10:42:42;;;;;;;;;;;;;;;26.23;56.84;99894.41;1693896;84;21497;-62
2022/06/02 10:45:45;;;;;;;6.62;6.03;;;;;;;26.25;56.80;99884.90;1665475;85;20423;-63
2022/06/02 10:48:49;;;;;;;6.17;5.60;;;;;;;26.32;56.83;99875.65;1620030;87;21161;-63
2022/06/02 10:51:36;;;;;;;7.17;5.80;;;;;;;26.32;56.83;99875.65;1686352;84;21575;-63
2022/06/02 10:54:43;;;;;;;5.70;5.20;;;;;;;26.35;56.66;99870.48;1669519;84;21061;-63
2022/06/02 10:57:37;;;;;;;6.58;5.97;;;;;;;26.39;56.54;99860.69;1695021;83;21055;-62
2022/06/02 11:00:44;;;;;;;5.85;5.33;;;;;;;26.44;56.51;99854.41;1700207;83;21029;-62
2022/06/02 11:03:41;;;;;;;6.92;5.72;;;;;;;26.47;56.41;99846.53;1655149;83;21189;-63
2022/06/02 11:06:37;;;;;;;6.03;5.40;;;;;;;26.53;56.39;99846.54;1685722;83;21051;-67
2022/06/02 11:09:35;;;;;;;5.75;5.25;;;;;;;26.56;56.26;99848.70;1685944;84;21069;-63
2022/06/02 11:12:41;;;;;;;5.58;5.08;;;;;;;26.59;56.25;99842.20;1701166;83;21060;-63
2022/06/02 11:15:31;;;;;;;6.25;5.65;;;;;;;26.60;56.23;99846.58;1690522;84;21533;-64
2022/06/02 11:18:06;;;;;;;6.12;5.50;;;;;;;26.60;56.20;99841.13;1657201;84;21235;-65
2022/06/02 11:21:13;;;;;;;6.60;6.00;;;;;;;26.62;56.13;99835.41;1712033;82;21193;-64
2022/06/02 11:24:12;;;;;;;6.78;6.15;;;;;;;26.62;56.17;99828.05;1690768;82;21058;-64
2022/06/02 11:27:08;;;;;;;7.03;6.25;;;;;;;26.65;56.06;99829.40;1700608;82;21080;-63
2022/06/02 11:29:54;;;;;;;6.45;5.22;;;;;;;26.66;55.95;99824.23;1684794;83;21153;-65
2022/06/02 11:32:44;;;;;;;6.53;5.92;;;;;;;26.70;55.92;99821.79;1670205;83;21160;-65
2022/06/02 11:35:47;;;;;;;9.70;6.30;;;;;;;26.72;55.89;99825.86;1659330;85;21096;-61
2022/06/02 11:38:48;;;;;;;6.13;5.57;;;;;;;26.76;55.78;99819.33;1710793;82;21502;-60
2022/06/02 11:41:44;;;;;;;6.35;5.75;;;;;;;26.80;55.79;99819.86;1704142;82;21530;-61
2022/06/02 11:44:55;;;;;;;6.30;5.70;;;;;;;26.86;55.63;99808.41;1692959;83;21593;-61
2022/06/02 11:47:36;;;;;;;11.18;5.35;;;;;;;26.92;55.46;99806.50;1711605;83;21185;-62
2022/06/02 11:50:29;;;;;;;6.40;5.58;;;;;;;26.95;55.39;99806.77;1703550;82;21133;-60
2022/06/02 11:53:35;;;;;;;9.53;5.87;;;;;;;26.99;55.37;99798.86;1706585;82;21042;-60
2022/06/02 11:56:26;;;;;;;8.70;6.55;;;;;;;27.01;55.29;99801.57;1708229;83;21106;-60
2022/06/02 11:59:10;;;;;;;9.60;6.00;;;;;;;27.05;55.33;99793.11;1713533;82;21102;-64
2022/06/02 12:01:47;;;;;;;8.63;5.55;;;;;;;27.10;55.31;99793.66;1716042;82;21101;-63
2022/06/02 12:04:54;;;;;;;5.90;5.10;;;;;;;27.15;55.23;99801.00;1674657;83;20998;-64
2022/06/02 12:07:55;;;;;;;6.80;6.20;;;;;;;27.20;55.07;99803.17;1714699;82;21089;-63
2022/06/02 12:10:36;;;;;;;5.65;4.92;;;;;;;27.26;54.97;99797.99;1707137;82;21053;-64
2022/06/02 12:13:39;;;;;;;6.25;5.65;;;;;;;27.35;54.70;99796.05;1705278;82;21107;-65
2022/06/02 12:16:31;;;;;;;8.08;5.67;;;;;;;27.40;54.55;99791.39;1687589;84;21216;-64
2022/06/02 12:19:54;;;;;;;8.00;5.90;;;;;;;27.47;54.29;99785.66;1692063;82;21602;-63
2022/06/02 12:22:49;;;;;;;5.58;5.15;;;;;;;27.55;54.15;99786.43;1726262;81;21077;-65
2022/06/02 12:25:46;;;;;;;7.37;5.55;;;;;;;27.64;54.03;99789.38;1691471;83;21056;-61
2022/06/02 12:28:49;;;;;;;5.80;5.20;;;;;;;27.72;53.99;99783.88;1692624;83;21075;-63
2022/06/02 12:32:00;;;;;;;6.15;5.45;;;;;;;27.80;54.10;99780.59;1690746;83;21253;-61
2022/06/02 12:35:06;;;;;;;9.30;5.87;;;;;;;27.87;54.01;99781.07;1615810;87;21145;-64
2022/06/02 12:37:58;;;;;;;6.72;5.45;;;;;;;27.93;53.94;99780.00;1699393;83;21081;-64
2022/06/02 12:40:54;;;;;;;5.85;5.28;;;;;;;27.97;53.77;99785.68;1694065;83;21050;-64
2022/06/02 12:43:27;;;;;;;6.20;5.58;;;;;;;28.00;53.64;99788.66;1670593;84;21158;-63
2022/06/02 12:46:37;;;;;;;6.70;5.75;;;;;;;28.03;53.41;99779.92;1674189;84;21316;-63
2022/06/02 12:49:26;;;;;;;5.60;5.10;;;;;;;28.09;53.25;99779.89;1672673;83;21126;-63
2022/06/02 12:52:41;;;;;;;5.85;5.25;;;;;;;28.17;53.12;99774.63;1676995;83;21521;-63
2022/06/02 12:55:56;;;;;;;6.42;4.92;;;;;;;28.23;52.79;99769.95;1674261;83;21106;-64
2022/06/02 12:59:09;;;;;;;5.90;5.40;;;;;;;28.28;52.51;99769.92;1686800;84;21057;-63
2022/06/02 13:01:51;;;;;;;;;;;;;;;28.34;52.26;99768.77;1680920;83;21125;-65
2022/06/02 13:04:57;;;;;;;5.35;4.85;;;;;;;28.42;51.98;99749.59;1696367;83;20180;-67
2022/06/02 13:07:51;;;;;;;7.60;5.30;;;;;;;28.50;51.80;99744.05;1679209;83;21050;-68
2022/06/02 13:10:32;;;;;;;5.85;4.60;;;;;;;28.60;51.42;99736.59;1689284;83;21590;-67
2022/06/02 13:13:21;;;;;;;5.70;4.58;;;;;;;28.75;51.12;99740.30;1692721;83;21145;-67
2022/06/02 13:16:20;;;;;;;4.87;4.47;;;;;;;28.93;50.88;99736.80;1661993;86;21301;-66
2022/06/02 13:18:58;;;;;;;4.83;4.42;;;;;;;29.18;50.20;99724.78;1682429;84;21101;-69
2022/06/02 13:21:50;;;;;;;7.08;4.80;;;;;;;29.38;49.82;99726.46;1691523;83;21489;-68
2022/06/02 13:24:59;;;;;;;7.00;5.00;;;;;;;29.44;49.40;99731.84;1689201;83;21141;-69
2022/06/02 13:27:52;;;;;;;4.85;4.40;;;;;;;29.45;49.19;99734.30;1674696;84;21350;-67
2022/06/02 13:31:13;;;;;;;5.87;5.05;;;;;;;29.41;49.06;99716.84;1694098;84;21159;-63
2022/06/02 13:34:25;;;;;;;9.90;4.65;;;;;;;29.33;49.11;99713.40;1694889;83;21073;-63
2022/06/02 13:37:03;;;;;;;6.08;4.85;;;;;;;29.20;49.14;99714.36;1701185;83;21119;-69
2022/06/02 13:40:28;;;;;;;5.25;4.83;;;;;;;29.08;49.22;99713.94;1680677;84;21065;-69
2022/06/02 13:43:22;;;;;;;6.22;4.08;;;;;;;29.00;49.58;99716.77;1695416;83;21061;-70
2022/06/02 13:46:12;;;;;;;5.45;4.80;;;;;;;28.89;49.82;99717.98;1717397;83;21196;-66
2022/06/02 13:49:27;;;;;;;7.15;5.35;;;;;;;28.81;49.95;99715.34;1715026;83;21053;-67
2022/06/02 13:52:35;;;;;;;53.65;19.52;;;;;;;28.74;50.20;99712.69;1653133;84;21062;-65
2022/06/02 13:58:34;;;;;;;6.78;5.15;;;;;;;28.01;87.52;99729.44;1708102;83;21004;-71
2022/06/02 14:01:30;;;;;;;5.87;4.50;;;;;;;27.53;75.97;99734.62;1695741;83;21258;-71
2022/06/02 14:04:37;;;;;;;7.85;4.72;;;;;;;27.25;67.18;99741.00;1691236;84;21542;-68
2022/06/02 14:07:24;;;;;;;6.55;4.47;;;;;;;27.13;63.83;99759.00;1690238;84;21593;-68